sensor_id;sensor_type;location;lat;lon;timestamp;temperature;humidity
20735;DHT22;10528;52.124;5.196;2023-12-29T00:00:52;11.40;99.90
20735;DHT22;10528;52.124;5.196;2023-12-29T00:03:19;11.40;99.90
20735;DHT22;10528;52.124;5.196;2023-12-29T00:05:46;11.50;99.90
20735;DHT22;10528;52.124;5.196;2023-12-29T00:08:13;11.50;99.90
20735;DHT22;10528;52.124;5.196;2023-12-29T00:10:40;11.50;99.90
20735;DHT22;10528;52.124;5.196;2023-12-29T00:13:07;11.30;99.90
20735;DHT22;10528;52.124;5.196;2023-12-29T00:15:34;11.30;99.90
20735;DHT22;10528;52.124;5.196;2023-12-29T00:18:01;11.10;99.90
20735;DHT22;10528;52.124;5.196;2023-12-29T00:20:29;11.00;99.90
20735;DHT22;10528;52.124;5.196;2023-12-29T00:23:07;11.00;99.90
20735;DHT22;10528;52.124;5.196;2023-12-29T00:25:37;10.90;99.90
20735;DHT22;10528;52.124;5.196;2023-12-29T00:28:05;11.00;99.90
20735;DHT22;10528;52.124;5.196;2023-12-29T00:30:32;11.00;99.90
20735;DHT22;10528;52.124;5.196;2023-12-29T00:33:19;10.90;99.90
20735;DHT22;10528;52.124;5.196;2023-12-29T00:35:46;11.00;99.90
20735;DHT22;10528;52.124;5.196;2023-12-29T00:38:13;11.00;99.90
20735;DHT22;10528;52.124;5.196;2023-12-29T00:40:40;11.10;99.90
20735;DHT22;10528;52.124;5.196;2023-12-29T00:43:08;11.10;99.90
20735;DHT22;10528;52.124;5.196;2023-12-29T00:45:34;11.20;99.90
20735;DHT22;10528;52.124;5.196;2023-12-29T00:48:03;11.20;99.90
20735;DHT22;10528;52.124;5.196;2023-12-29T00:50:30;11.20;99.90
20735;DHT22;10528;52.124;5.196;2023-12-29T00:52:57;11.20;99.90
20735;DHT22;10528;52.124;5.196;2023-12-29T00:55:24;11.20;99.90
20735;DHT22;10528;52.124;5.196;2023-12-29T00:57:51;11.30;99.90
20735;DHT22;10528;52.124;5.196;2023-12-29T01:00:18;11.30;99.90
20735;DHT22;10528;52.124;5.196;2023-12-29T01:02:45;11.50;99.90
20735;DHT22;10528;52.124;5.196;2023-12-29T01:05:16;11.40;99.90
20735;DHT22;10528;52.124;5.196;2023-12-29T01:07:46;11.50;99.90
20735;DHT22;10528;52.124;5.196;2023-12-29T01:10:13;11.50;99.90
20735;DHT22;10528;52.124;5.196;2023-12-29T01:12:41;11.50;99.90
20735;DHT22;10528;52.124;5.196;2023-12-29T01:15:08;11.40;99.90
20735;DHT22;10528;52.124;5.196;2023-12-29T01:17:36;11.30;99.90
20735;DHT22;10528;52.124;5.196;2023-12-29T01:20:02;11.30;99.90
20735;DHT22;10528;52.124;5.196;2023-12-29T01:22:31;11.30;99.90
20735;DHT22;10528;52.124;5.196;2023-12-29T01:25:01;11.30;99.90
20735;DHT22;10528;52.124;5.196;2023-12-29T01:27:29;11.30;99.90
20735;DHT22;10528;52.124;5.196;2023-12-29T01:29:56;11.30;99.90
20735;DHT22;10528;52.124;5.196;2023-12-29T01:32:23;11.40;99.90
20735;DHT22;10528;52.124;5.196;2023-12-29T01:34:52;11.30;99.90
20735;DHT22;10528;52.124;5.196;2023-12-29T01:37:19;11.50;99.90
20735;DHT22;10528;52.124;5.196;2023-12-29T01:39:47;11.40;99.90
20735;DHT22;10528;52.124;5.196;2023-12-29T01:42:15;11.30;99.90
20735;DHT22;10528;52.124;5.196;2023-12-29T01:44:41;11.40;99.90
20735;DHT22;10528;52.124;5.196;2023-12-29T01:47:16;11.40;99.90
20735;DHT22;10528;52.124;5.196;2023-12-29T01:49:44;11.30;99.90
20735;DHT22;10528;52.124;5.196;2023-12-29T01:52:15;11.40;99.90
20735;DHT22;10528;52.124;5.196;2023-12-29T01:54:47;11.40;99.90
20735;DHT22;10528;52.124;5.196;2023-12-29T01:57:15;11.40;99.90
20735;DHT22;10528;52.124;5.196;2023-12-29T01:59:43;11.30;99.90
20735;DHT22;10528;52.124;5.196;2023-12-29T02:02:12;11.30;99.90
20735;DHT22;10528;52.124;5.196;2023-12-29T02:04:40;11.40;99.90
20735;DHT22;10528;52.124;5.196;2023-12-29T02:07:08;11.30;99.90
20735;DHT22;10528;52.124;5.196;2023-12-29T02:09:36;11.40;99.90
20735;DHT22;10528;52.124;5.196;2023-12-29T02:12:04;11.40;99.90
20735;DHT22;10528;52.124;5.196;2023-12-29T02:14:31;11.40;99.90
20735;DHT22;10528;52.124;5.196;2023-12-29T02:17:09;11.40;99.90
20735;DHT22;10528;52.124;5.196;2023-12-29T02:19:45;11.40;99.90
20735;DHT22;10528;52.124;5.196;2023-12-29T02:22:14;11.40;99.90
20735;DHT22;10528;52.124;5.196;2023-12-29T02:25:00;11.30;99.90
20735;DHT22;10528;52.124;5.196;2023-12-29T02:27:57;11.30;99.90
20735;DHT22;10528;52.124;5.196;2023-12-29T02:33:24;11.30;99.90
20735;DHT22;10528;52.124;5.196;2023-12-29T02:35:54;11.20;99.90
20735;DHT22;10528;52.124;5.196;2023-12-29T02:38:23;11.30;99.90
20735;DHT22;10528;52.124;5.196;2023-12-29T02:40:50;11.20;99.90
20735;DHT22;10528;52.124;5.196;2023-12-29T02:43:17;11.20;99.90
20735;DHT22;10528;52.124;5.196;2023-12-29T02:45:44;11.20;99.90
20735;DHT22;10528;52.124;5.196;2023-12-29T02:48:11;11.20;99.90
20735;DHT22;10528;52.124;5.196;2023-12-29T02:50:38;11.20;99.90
20735;DHT22;10528;52.124;5.196;2023-12-29T02:53:06;11.10;99.90
20735;DHT22;10528;52.124;5.196;2023-12-29T02:55:33;11.10;99.90
20735;DHT22;10528;52.124;5.196;2023-12-29T02:58:00;11.10;99.90
20735;DHT22;10528;52.124;5.196;2023-12-29T03:00:28;11.10;99.90
20735;DHT22;10528;52.124;5.196;2023-12-29T03:02:54;11.20;99.90
20735;DHT22;10528;52.124;5.196;2023-12-29T03:05:21;11.10;99.90
20735;DHT22;10528;52.124;5.196;2023-12-29T03:07:48;11.00;99.90
20735;DHT22;10528;52.124;5.196;2023-12-29T03:10:15;10.90;99.90
20735;DHT22;10528;52.124;5.196;2023-12-29T03:12:42;11.00;99.90
20735;DHT22;10528;52.124;5.196;2023-12-29T03:15:09;11.00;99.90
20735;DHT22;10528;52.124;5.196;2023-12-29T03:17:37;11.10;99.90
20735;DHT22;10528;52.124;5.196;2023-12-29T03:20:04;11.10;99.90
20735;DHT22;10528;52.124;5.196;2023-12-29T03:22:32;11.00;99.90
20735;DHT22;10528;52.124;5.196;2023-12-29T03:24:59;11.10;99.90
20735;DHT22;10528;52.124;5.196;2023-12-29T03:27:26;11.00;99.90
20735;DHT22;10528;52.124;5.196;2023-12-29T03:29:54;10.90;99.90
20735;DHT22;10528;52.124;5.196;2023-12-29T03:32:21;10.90;99.90
20735;DHT22;10528;52.124;5.196;2023-12-29T03:34:48;10.90;99.90
20735;DHT22;10528;52.124;5.196;2023-12-29T03:37:15;10.90;99.90
20735;DHT22;10528;52.124;5.196;2023-12-29T03:39:42;10.90;99.90
20735;DHT22;10528;52.124;5.196;2023-12-29T03:42:10;10.80;99.90
20735;DHT22;10528;52.124;5.196;2023-12-29T03:44:37;10.80;99.90
20735;DHT22;10528;52.124;5.196;2023-12-29T03:47:04;10.80;99.90
20735;DHT22;10528;52.124;5.196;2023-12-29T03:49:32;10.70;99.90
20735;DHT22;10528;52.124;5.196;2023-12-29T03:52:00;10.60;99.90
20735;DHT22;10528;52.124;5.196;2023-12-29T03:54:27;10.70;99.90
20735;DHT22;10528;52.124;5.196;2023-12-29T03:56:55;10.70;99.90
20735;DHT22;10528;52.124;5.196;2023-12-29T03:59:22;10.70;99.90
20735;DHT22;10528;52.124;5.196;2023-12-29T04:01:48;10.60;99.90
20735;DHT22;10528;52.124;5.196;2023-12-29T04:04:16;10.70;99.90
20735;DHT22;10528;52.124;5.196;2023-12-29T04:06:43;10.70;99.90
20735;DHT22;10528;52.124;5.196;2023-12-29T04:09:10;10.70;99.90
20735;DHT22;10528;52.124;5.196;2023-12-29T04:11:37;10.60;99.90
20735;DHT22;10528;52.124;5.196;2023-12-29T04:14:04;10.80;99.90
20735;DHT22;10528;52.124;5.196;2023-12-29T04:16:31;10.90;99.90
20735;DHT22;10528;52.124;5.196;2023-12-29T04:18:58;10.80;99.90
20735;DHT22;10528;52.124;5.196;2023-12-29T04:21:25;10.80;99.90
20735;DHT22;10528;52.124;5.196;2023-12-29T04:23:51;10.80;99.90
20735;DHT22;10528;52.124;5.196;2023-12-29T04:26:18;10.80;99.90
20735;DHT22;10528;52.124;5.196;2023-12-29T04:28:45;10.90;99.90
20735;DHT22;10528;52.124;5.196;2023-12-29T04:31:12;10.90;99.90
20735;DHT22;10528;52.124;5.196;2023-12-29T04:33:39;10.90;99.90
20735;DHT22;10528;52.124;5.196;2023-12-29T04:36:06;11.00;99.90
20735;DHT22;10528;52.124;5.196;2023-12-29T04:38:33;11.10;99.90
20735;DHT22;10528;52.124;5.196;2023-12-29T04:41:00;11.10;99.90
20735;DHT22;10528;52.124;5.196;2023-12-29T04:43:27;11.00;99.90
20735;DHT22;10528;52.124;5.196;2023-12-29T04:45:54;11.00;99.90
20735;DHT22;10528;52.124;5.196;2023-12-29T04:48:21;11.00;99.90
20735;DHT22;10528;52.124;5.196;2023-12-29T04:50:48;11.00;99.90
20735;DHT22;10528;52.124;5.196;2023-12-29T04:53:15;11.00;99.90
20735;DHT22;10528;52.124;5.196;2023-12-29T04:55:42;10.90;99.90
20735;DHT22;10528;52.124;5.196;2023-12-29T04:58:09;10.90;99.90
20735;DHT22;10528;52.124;5.196;2023-12-29T05:00:36;11.00;99.90
20735;DHT22;10528;52.124;5.196;2023-12-29T05:03:04;11.00;99.90
20735;DHT22;10528;52.124;5.196;2023-12-29T05:05:31;10.90;99.90
20735;DHT22;10528;52.124;5.196;2023-12-29T05:07:58;10.90;99.90
20735;DHT22;10528;52.124;5.196;2023-12-29T05:10:26;11.00;99.90
20735;DHT22;10528;52.124;5.196;2023-12-29T05:12:53;11.00;99.90
20735;DHT22;10528;52.124;5.196;2023-12-29T05:15:19;10.90;99.90
20735;DHT22;10528;52.124;5.196;2023-12-29T05:17:46;11.00;99.90
20735;DHT22;10528;52.124;5.196;2023-12-29T05:20:13;10.90;99.90
20735;DHT22;10528;52.124;5.196;2023-12-29T05:22:40;11.00;99.90
20735;DHT22;10528;52.124;5.196;2023-12-29T05:25:07;11.00;99.90
20735;DHT22;10528;52.124;5.196;2023-12-29T05:27:35;11.00;99.90
20735;DHT22;10528;52.124;5.196;2023-12-29T05:30:04;10.90;99.90
20735;DHT22;10528;52.124;5.196;2023-12-29T05:32:32;11.00;99.90
20735;DHT22;10528;52.124;5.196;2023-12-29T05:34:59;10.90;99.90
20735;DHT22;10528;52.124;5.196;2023-12-29T05:37:27;10.90;99.90
20735;DHT22;10528;52.124;5.196;2023-12-29T05:39:53;10.80;99.90
20735;DHT22;10528;52.124;5.196;2023-12-29T05:42:21;10.90;99.90
20735;DHT22;10528;52.124;5.196;2023-12-29T05:44:47;10.80;99.90
20735;DHT22;10528;52.124;5.196;2023-12-29T05:47:17;10.80;99.90
20735;DHT22;10528;52.124;5.196;2023-12-29T05:49:44;10.90;99.90
20735;DHT22;10528;52.124;5.196;2023-12-29T05:52:12;10.80;99.90
20735;DHT22;10528;52.124;5.196;2023-12-29T05:54:39;10.90;99.90
20735;DHT22;10528;52.124;5.196;2023-12-29T05:57:06;10.80;99.90
20735;DHT22;10528;52.124;5.196;2023-12-29T05:59:33;10.80;99.90
20735;DHT22;10528;52.124;5.196;2023-12-29T06:02:00;10.80;99.90
20735;DHT22;10528;52.124;5.196;2023-12-29T06:04:27;10.80;99.90
20735;DHT22;10528;52.124;5.196;2023-12-29T06:06:54;10.80;99.90
20735;DHT22;10528;52.124;5.196;2023-12-29T06:09:21;10.80;99.90
20735;DHT22;10528;52.124;5.196;2023-12-29T06:11:49;10.80;99.90
20735;DHT22;10528;52.124;5.196;2023-12-29T06:14:17;10.80;99.90
20735;DHT22;10528;52.124;5.196;2023-12-29T06:16:44;10.90;99.90
20735;DHT22;10528;52.124;5.196;2023-12-29T06:19:11;10.80;99.90
20735;DHT22;10528;52.124;5.196;2023-12-29T06:21:41;10.80;99.90
20735;DHT22;10528;52.124;5.196;2023-12-29T06:24:12;10.80;99.90
20735;DHT22;10528;52.124;5.196;2023-12-29T06:26:39;10.80;99.90
20735;DHT22;10528;52.124;5.196;2023-12-29T06:29:10;10.80;99.90
20735;DHT22;10528;52.124;5.196;2023-12-29T06:31:40;10.80;99.90
20735;DHT22;10528;52.124;5.196;2023-12-29T06:34:09;11.00;99.90
20735;DHT22;10528;52.124;5.196;2023-12-29T06:36:36;11.10;99.90
20735;DHT22;10528;52.124;5.196;2023-12-29T06:39:03;11.10;99.90
20735;DHT22;10528;52.124;5.196;2023-12-29T06:41:31;11.10;99.90
20735;DHT22;10528;52.124;5.196;2023-12-29T06:43:58;11.20;99.90
20735;DHT22;10528;52.124;5.196;2023-12-29T06:46:26;11.10;99.90
20735;DHT22;10528;52.124;5.196;2023-12-29T06:48:53;11.00;99.90
20735;DHT22;10528;52.124;5.196;2023-12-29T06:51:20;11.20;99.90
20735;DHT22;10528;52.124;5.196;2023-12-29T06:53:50;11.00;99.90
20735;DHT22;10528;52.124;5.196;2023-12-29T06:56:18;11.00;99.90
20735;DHT22;10528;52.124;5.196;2023-12-29T06:58:45;11.00;99.90
20735;DHT22;10528;52.124;5.196;2023-12-29T07:01:13;11.00;99.90
20735;DHT22;10528;52.124;5.196;2023-12-29T07:03:40;11.10;99.90
20735;DHT22;10528;52.124;5.196;2023-12-29T07:06:09;11.10;99.90
20735;DHT22;10528;52.124;5.196;2023-12-29T07:08:36;11.10;99.90
20735;DHT22;10528;52.124;5.196;2023-12-29T07:11:03;11.00;99.90
20735;DHT22;10528;52.124;5.196;2023-12-29T07:13:30;11.00;99.90
20735;DHT22;10528;52.124;5.196;2023-12-29T07:15:57;10.90;99.90
20735;DHT22;10528;52.124;5.196;2023-12-29T07:18:25;11.00;99.90
20735;DHT22;10528;52.124;5.196;2023-12-29T07:20:52;11.10;99.90
20735;DHT22;10528;52.124;5.196;2023-12-29T07:23:19;11.10;99.90
20735;DHT22;10528;52.124;5.196;2023-12-29T07:25:47;11.20;99.90
20735;DHT22;10528;52.124;5.196;2023-12-29T07:28:14;11.20;99.90
20735;DHT22;10528;52.124;5.196;2023-12-29T07:30:42;11.20;99.90
20735;DHT22;10528;52.124;5.196;2023-12-29T07:33:09;11.10;99.90
20735;DHT22;10528;52.124;5.196;2023-12-29T07:35:36;11.10;99.90
20735;DHT22;10528;52.124;5.196;2023-12-29T07:38:03;11.20;99.90
20735;DHT22;10528;52.124;5.196;2023-12-29T07:40:30;11.10;99.90
20735;DHT22;10528;52.124;5.196;2023-12-29T07:42:57;11.20;99.90
20735;DHT22;10528;52.124;5.196;2023-12-29T07:45:25;11.10;99.90
20735;DHT22;10528;52.124;5.196;2023-12-29T07:47:52;11.10;99.90
20735;DHT22;10528;52.124;5.196;2023-12-29T07:50:19;11.20;99.90
20735;DHT22;10528;52.124;5.196;2023-12-29T07:52:46;11.10;99.90
20735;DHT22;10528;52.124;5.196;2023-12-29T07:55:13;11.10;99.90
20735;DHT22;10528;52.124;5.196;2023-12-29T07:57:43;11.20;99.90
20735;DHT22;10528;52.124;5.196;2023-12-29T08:00:10;11.10;99.90
20735;DHT22;10528;52.124;5.196;2023-12-29T08:02:38;11.00;99.90
20735;DHT22;10528;52.124;5.196;2023-12-29T08:05:06;11.10;99.90
20735;DHT22;10528;52.124;5.196;2023-12-29T08:07:36;11.20;99.90
20735;DHT22;10528;52.124;5.196;2023-12-29T08:10:07;11.30;99.90
20735;DHT22;10528;52.124;5.196;2023-12-29T08:12:35;11.40;99.90
20735;DHT22;10528;52.124;5.196;2023-12-29T08:15:03;11.40;99.90
20735;DHT22;10528;52.124;5.196;2023-12-29T08:17:30;11.20;99.90
20735;DHT22;10528;52.124;5.196;2023-12-29T08:19:58;11.20;99.90
20735;DHT22;10528;52.124;5.196;2023-12-29T08:22:27;11.10;99.90
20735;DHT22;10528;52.124;5.196;2023-12-29T08:24:56;11.20;99.90
20735;DHT22;10528;52.124;5.196;2023-12-29T08:27:24;11.20;99.90
20735;DHT22;10528;52.124;5.196;2023-12-29T08:29:52;11.20;99.90
20735;DHT22;10528;52.124;5.196;2023-12-29T08:32:20;11.10;99.90
20735;DHT22;10528;52.124;5.196;2023-12-29T08:34:48;11.20;99.90
20735;DHT22;10528;52.124;5.196;2023-12-29T08:37:15;11.30;99.90
20735;DHT22;10528;52.124;5.196;2023-12-29T08:39:47;11.20;99.90
20735;DHT22;10528;52.124;5.196;2023-12-29T08:42:15;11.20;99.90
20735;DHT22;10528;52.124;5.196;2023-12-29T08:44:42;11.20;99.90
20735;DHT22;10528;52.124;5.196;2023-12-29T08:47:09;11.20;99.90
20735;DHT22;10528;52.124;5.196;2023-12-29T08:49:37;11.20;99.90
20735;DHT22;10528;52.124;5.196;2023-12-29T08:52:05;11.20;99.90
20735;DHT22;10528;52.124;5.196;2023-12-29T08:54:32;11.20;99.90
20735;DHT22;10528;52.124;5.196;2023-12-29T08:57:00;11.30;99.90
20735;DHT22;10528;52.124;5.196;2023-12-29T08:59:27;11.20;99.90
20735;DHT22;10528;52.124;5.196;2023-12-29T09:01:54;11.10;99.90
20735;DHT22;10528;52.124;5.196;2023-12-29T09:04:22;11.10;99.90
20735;DHT22;10528;52.124;5.196;2023-12-29T09:06:49;11.10;99.90
20735;DHT22;10528;52.124;5.196;2023-12-29T09:09:16;11.10;99.90
20735;DHT22;10528;52.124;5.196;2023-12-29T09:11:44;11.10;99.90
20735;DHT22;10528;52.124;5.196;2023-12-29T09:14:11;11.30;99.90
20735;DHT22;10528;52.124;5.196;2023-12-29T09:16:38;11.30;99.90
20735;DHT22;10528;52.124;5.196;2023-12-29T09:19:10;11.60;99.90
20735;DHT22;10528;52.124;5.196;2023-12-29T09:21:56;11.60;99.90
20735;DHT22;10528;52.124;5.196;2023-12-29T09:24:23;11.60;99.90
20735;DHT22;10528;52.124;5.196;2023-12-29T09:26:50;11.50;99.90
20735;DHT22;10528;52.124;5.196;2023-12-29T09:29:18;11.70;99.90
20735;DHT22;10528;52.124;5.196;2023-12-29T09:31:45;11.50;99.90
20735;DHT22;10528;52.124;5.196;2023-12-29T09:34:12;11.50;99.90
20735;DHT22;10528;52.124;5.196;2023-12-29T09:36:39;11.70;99.90
20735;DHT22;10528;52.124;5.196;2023-12-29T09:39:06;11.70;99.90
20735;DHT22;10528;52.124;5.196;2023-12-29T09:41:34;11.60;99.90
20735;DHT22;10528;52.124;5.196;2023-12-29T09:44:13;11.50;99.90
20735;DHT22;10528;52.124;5.196;2023-12-29T09:46:42;11.70;99.90
20735;DHT22;10528;52.124;5.196;2023-12-29T09:49:10;11.70;99.90
20735;DHT22;10528;52.124;5.196;2023-12-29T09:51:39;11.70;99.90
20735;DHT22;10528;52.124;5.196;2023-12-29T09:54:08;11.60;99.90
20735;DHT22;10528;52.124;5.196;2023-12-29T09:56:40;11.70;99.90
20735;DHT22;10528;52.124;5.196;2023-12-29T09:59:12;11.70;99.90
20735;DHT22;10528;52.124;5.196;2023-12-29T10:01:41;11.60;99.90
20735;DHT22;10528;52.124;5.196;2023-12-29T10:04:12;11.70;99.90
20735;DHT22;10528;52.124;5.196;2023-12-29T10:06:43;11.70;99.90
20735;DHT22;10528;52.124;5.196;2023-12-29T10:09:17;11.80;99.90
20735;DHT22;10528;52.124;5.196;2023-12-29T10:11:47;11.90;99.90
20735;DHT22;10528;52.124;5.196;2023-12-29T10:14:24;12.00;99.90
20735;DHT22;10528;52.124;5.196;2023-12-29T10:17:11;12.00;99.90
20735;DHT22;10528;52.124;5.196;2023-12-29T10:19:52;11.80;99.90
20735;DHT22;10528;52.124;5.196;2023-12-29T10:22:46;11.80;99.90
20735;DHT22;10528;52.124;5.196;2023-12-29T10:25:18;11.70;99.90
20735;DHT22;10528;52.124;5.196;2023-12-29T10:27:46;11.70;99.90
20735;DHT22;10528;52.124;5.196;2023-12-29T10:30:14;11.70;99.90
20735;DHT22;10528;52.124;5.196;2023-12-29T10:32:54;11.70;99.90
20735;DHT22;10528;52.124;5.196;2023-12-29T10:35:21;11.80;99.90
20735;DHT22;10528;52.124;5.196;2023-12-29T10:37:52;11.80;99.90
20735;DHT22;10528;52.124;5.196;2023-12-29T10:40:19;11.80;99.90
20735;DHT22;10528;52.124;5.196;2023-12-29T10:42:55;11.70;99.90
20735;DHT22;10528;52.124;5.196;2023-12-29T10:45:24;11.70;99.90
20735;DHT22;10528;52.124;5.196;2023-12-29T10:47:51;11.70;99.90
20735;DHT22;10528;52.124;5.196;2023-12-29T10:50:19;11.70;99.90
20735;DHT22;10528;52.124;5.196;2023-12-29T10:52:46;11.70;99.90
20735;DHT22;10528;52.124;5.196;2023-12-29T10:55:13;11.70;99.90
20735;DHT22;10528;52.124;5.196;2023-12-29T10:57:40;11.70;99.90
20735;DHT22;10528;52.124;5.196;2023-12-29T11:00:09;11.60;99.90
20735;DHT22;10528;52.124;5.196;2023-12-29T11:02:38;11.60;99.90
20735;DHT22;10528;52.124;5.196;2023-12-29T11:05:07;11.60;99.90
20735;DHT22;10528;52.124;5.196;2023-12-29T11:07:40;11.60;99.90
20735;DHT22;10528;52.124;5.196;2023-12-29T11:10:08;11.70;99.90
20735;DHT22;10528;52.124;5.196;2023-12-29T11:12:37;11.70;99.90
20735;DHT22;10528;52.124;5.196;2023-12-29T11:15:06;11.80;99.90
20735;DHT22;10528;52.124;5.196;2023-12-29T11:17:35;11.80;99.90
20735;DHT22;10528;52.124;5.196;2023-12-29T11:20:04;11.80;99.90
20735;DHT22;10528;52.124;5.196;2023-12-29T11:22:32;11.80;99.90
20735;DHT22;10528;52.124;5.196;2023-12-29T11:25:00;11.80;99.90
20735;DHT22;10528;52.124;5.196;2023-12-29T11:27:29;11.80;99.90
20735;DHT22;10528;52.124;5.196;2023-12-29T11:30:01;12.00;99.90
20735;DHT22;10528;52.124;5.196;2023-12-29T11:32:45;12.00;99.90
20735;DHT22;10528;52.124;5.196;2023-12-29T11:35:37;11.90;99.90
20735;DHT22;10528;52.124;5.196;2023-12-29T11:38:28;11.90;99.90
20735;DHT22;10528;52.124;5.196;2023-12-29T11:43:45;11.90;99.90
20735;DHT22;10528;52.124;5.196;2023-12-29T11:46:32;12.00;99.90
20735;DHT22;10528;52.124;5.196;2023-12-29T11:49:05;12.00;99.90
20735;DHT22;10528;52.124;5.196;2023-12-29T11:51:43;12.00;99.90
20735;DHT22;10528;52.124;5.196;2023-12-29T11:54:24;12.00;99.90
20735;DHT22;10528;52.124;5.196;2023-12-29T11:56:53;12.10;99.90
20735;DHT22;10528;52.124;5.196;2023-12-29T11:59:25;12.10;99.90
20735;DHT22;10528;52.124;5.196;2023-12-29T12:01:55;12.00;99.90
20735;DHT22;10528;52.124;5.196;2023-12-29T12:04:37;12.00;99.90
20735;DHT22;10528;52.124;5.196;2023-12-29T12:07:16;12.10;99.90
20735;DHT22;10528;52.124;5.196;2023-12-29T12:12:50;12.00;99.90
20735;DHT22;10528;52.124;5.196;2023-12-29T12:17:59;11.90;99.90
20735;DHT22;10528;52.124;5.196;2023-12-29T12:20:27;12.00;99.90
20735;DHT22;10528;52.124;5.196;2023-12-29T12:23:00;12.00;99.90
20735;DHT22;10528;52.124;5.196;2023-12-29T12:25:31;11.90;99.90
20735;DHT22;10528;52.124;5.196;2023-12-29T12:28:07;11.90;99.90
20735;DHT22;10528;52.124;5.196;2023-12-29T12:30:36;11.90;99.90
20735;DHT22;10528;52.124;5.196;2023-12-29T12:33:04;11.90;99.90
20735;DHT22;10528;52.124;5.196;2023-12-29T12:35:32;12.00;99.90
20735;DHT22;10528;52.124;5.196;2023-12-29T12:38:16;12.00;99.90
20735;DHT22;10528;52.124;5.196;2023-12-29T12:40:51;12.10;99.90
20735;DHT22;10528;52.124;5.196;2023-12-29T12:43:18;12.00;99.90
20735;DHT22;10528;52.124;5.196;2023-12-29T12:45:53;12.00;99.90
20735;DHT22;10528;52.124;5.196;2023-12-29T12:48:39;12.00;99.90
20735;DHT22;10528;52.124;5.196;2023-12-29T12:51:13;12.00;99.90
20735;DHT22;10528;52.124;5.196;2023-12-29T12:53:41;12.00;99.90
20735;DHT22;10528;52.124;5.196;2023-12-29T12:56:11;12.00;99.90
20735;DHT22;10528;52.124;5.196;2023-12-29T12:58:38;12.00;99.90
20735;DHT22;10528;52.124;5.196;2023-12-29T13:01:05;12.00;99.90
20735;DHT22;10528;52.124;5.196;2023-12-29T13:03:34;12.00;99.90
20735;DHT22;10528;52.124;5.196;2023-12-29T13:06:05;12.10;99.90
20735;DHT22;10528;52.124;5.196;2023-12-29T13:08:33;12.10;99.90
20735;DHT22;10528;52.124;5.196;2023-12-29T13:11:09;12.10;99.90
20735;DHT22;10528;52.124;5.196;2023-12-29T13:13:40;12.10;99.90
20735;DHT22;10528;52.124;5.196;2023-12-29T13:16:07;12.10;99.90
20735;DHT22;10528;52.124;5.196;2023-12-29T13:18:34;12.00;99.90
20735;DHT22;10528;52.124;5.196;2023-12-29T13:21:02;12.00;99.90
20735;DHT22;10528;52.124;5.196;2023-12-29T13:23:30;11.90;99.90
20735;DHT22;10528;52.124;5.196;2023-12-29T13:25:59;11.90;99.90
20735;DHT22;10528;52.124;5.196;2023-12-29T13:28:30;11.90;99.90
20735;DHT22;10528;52.124;5.196;2023-12-29T13:31:01;12.00;99.90
20735;DHT22;10528;52.124;5.196;2023-12-29T13:36:48;11.90;99.90
20735;DHT22;10528;52.124;5.196;2023-12-29T13:39:26;11.90;99.90
20735;DHT22;10528;52.124;5.196;2023-12-29T13:42:19;12.00;99.90
20735;DHT22;10528;52.124;5.196;2023-12-29T13:44:49;12.00;99.90
20735;DHT22;10528;52.124;5.196;2023-12-29T13:47:18;12.00;99.90
20735;DHT22;10528;52.124;5.196;2023-12-29T13:49:47;12.00;99.90
20735;DHT22;10528;52.124;5.196;2023-12-29T13:52:16;12.00;99.90
20735;DHT22;10528;52.124;5.196;2023-12-29T13:54:44;12.00;99.90
20735;DHT22;10528;52.124;5.196;2023-12-29T13:57:11;12.00;99.90
20735;DHT22;10528;52.124;5.196;2023-12-29T13:59:39;11.90;99.90
20735;DHT22;10528;52.124;5.196;2023-12-29T14:05:14;11.90;99.90
20735;DHT22;10528;52.124;5.196;2023-12-29T14:08:10;11.90;99.90
20735;DHT22;10528;52.124;5.196;2023-12-29T14:10:36;11.90;99.90
20735;DHT22;10528;52.124;5.196;2023-12-29T14:13:08;11.90;99.90
20735;DHT22;10528;52.124;5.196;2023-12-29T14:15:39;11.90;99.90
20735;DHT22;10528;52.124;5.196;2023-12-29T14:26:41;11.80;99.90
20735;DHT22;10528;52.124;5.196;2023-12-29T14:29:13;11.80;99.90
20735;DHT22;10528;52.124;5.196;2023-12-29T14:31:44;11.70;99.90
20735;DHT22;10528;52.124;5.196;2023-12-29T14:34:12;11.70;99.90
20735;DHT22;10528;52.124;5.196;2023-12-29T14:36:41;11.70;99.90
20735;DHT22;10528;52.124;5.196;2023-12-29T14:39:09;11.70;99.90
20735;DHT22;10528;52.124;5.196;2023-12-29T14:41:37;11.80;99.90
20735;DHT22;10528;52.124;5.196;2023-12-29T14:44:05;11.70;99.90
20735;DHT22;10528;52.124;5.196;2023-12-29T14:46:32;11.70;99.90
20735;DHT22;10528;52.124;5.196;2023-12-29T14:49:03;11.60;99.90
20735;DHT22;10528;52.124;5.196;2023-12-29T14:51:30;11.50;99.90
20735;DHT22;10528;52.124;5.196;2023-12-29T14:53:57;11.40;99.90
20735;DHT22;10528;52.124;5.196;2023-12-29T14:56:24;11.30;99.90
20735;DHT22;10528;52.124;5.196;2023-12-29T14:58:52;11.30;99.90
20735;DHT22;10528;52.124;5.196;2023-12-29T15:01:19;11.20;99.90
20735;DHT22;10528;52.124;5.196;2023-12-29T15:03:46;11.20;99.90
20735;DHT22;10528;52.124;5.196;2023-12-29T15:06:14;11.10;99.90
20735;DHT22;10528;52.124;5.196;2023-12-29T15:08:40;11.10;99.90
20735;DHT22;10528;52.124;5.196;2023-12-29T15:11:08;11.20;99.90
20735;DHT22;10528;52.124;5.196;2023-12-29T15:13:35;11.20;99.90
20735;DHT22;10528;52.124;5.196;2023-12-29T15:16:02;11.30;99.90
20735;DHT22;10528;52.124;5.196;2023-12-29T15:18:30;11.20;99.90
20735;DHT22;10528;52.124;5.196;2023-12-29T15:20:58;11.10;99.90
20735;DHT22;10528;52.124;5.196;2023-12-29T15:23:26;11.00;99.90
20735;DHT22;10528;52.124;5.196;2023-12-29T15:25:55;10.90;99.90
20735;DHT22;10528;52.124;5.196;2023-12-29T15:28:22;10.80;99.90
20735;DHT22;10528;52.124;5.196;2023-12-29T15:30:49;10.80;99.90
20735;DHT22;10528;52.124;5.196;2023-12-29T15:33:17;10.80;99.90
20735;DHT22;10528;52.124;5.196;2023-12-29T15:35:45;10.70;99.90
20735;DHT22;10528;52.124;5.196;2023-12-29T15:38:13;10.70;99.90
20735;DHT22;10528;52.124;5.196;2023-12-29T15:40:40;10.70;99.90
20735;DHT22;10528;52.124;5.196;2023-12-29T15:43:07;10.60;99.90
20735;DHT22;10528;52.124;5.196;2023-12-29T15:45:35;10.60;99.90
20735;DHT22;10528;52.124;5.196;2023-12-29T15:48:02;10.60;99.90
20735;DHT22;10528;52.124;5.196;2023-12-29T15:50:31;10.70;99.90
20735;DHT22;10528;52.124;5.196;2023-12-29T15:52:58;10.70;99.90
20735;DHT22;10528;52.124;5.196;2023-12-29T15:55:26;10.70;99.90
20735;DHT22;10528;52.124;5.196;2023-12-29T15:57:53;10.80;99.90
20735;DHT22;10528;52.124;5.196;2023-12-29T16:00:20;10.80;99.90
20735;DHT22;10528;52.124;5.196;2023-12-29T16:02:47;10.80;99.90
20735;DHT22;10528;52.124;5.196;2023-12-29T16:05:14;10.90;99.90
20735;DHT22;10528;52.124;5.196;2023-12-29T16:07:42;10.80;99.90